Strona główna
METAR-TAF:

METAR-TAF

Lotnisko :

Hrabstwo Ocean, New Jersey, Stany Zjednoczone

Szerokość geograficzna: 39-55-39N, Długość geograficzna: 074-17-33W, wysokość: 25 m

Aktualna obserwacja pogody

Raport powstał 7 minut temu, godzina 08:56 UTC
Wiatr 3 kt od północ
Temperatura 20°C
Wilgotność 83%
Ciśnienie 1019 hPa
Widzialność: 16.1 km
Przerywane chmury na wysokości 3000 ft
Przerywane chmury na wysokości 6500 ft

METAR: KMJX 200856Z AUTO 36003KT 10SM BKN030 BKN065 20/17 A3009 RMK AO2 SLP195 T02000172 53006

czas: 05:03 (09:03 UTC)


TAF: brakujący

Obserwacja i prognoza pogody dla ponad 4000 lotnisk (raport METAR i TAF).

Dostępne stacje oznaczono żółtymi i czerwonymi punktami na mapie.

Najedź kursorem aby zobaczyć nazwę stacji.

Kliknij aby zobaczyć obserwacje i prognozy pogody.

Aby zmienić mapę: kliknij na zielony przycisk z czarnym krzyżykiem, aby powiększyć; na zielony przycisk z myślnikiem, aby pomniejszyć; na zielone strzałki, aby przejść do map sąsiednich.


METAR-TAF: